sensor_id;sensor_type;location;lat;lon;timestamp;pressure;altitude;pressure_sealevel;temperature;humidity
8069;BME280;4077;43.702;24.896;2023-09-19T00:00:16;99790.13;;;15.81;100.00
8069;BME280;4077;43.702;24.896;2023-09-19T00:02:45;99792.75;;;15.75;100.00
8069;BME280;4077;43.702;24.896;2023-09-19T00:05:12;99791.03;;;15.68;100.00
8069;BME280;4077;43.702;24.896;2023-09-19T00:07:38;99792.78;;;15.63;100.00
8069;BME280;4077;43.702;24.896;2023-09-19T00:10:04;99776.31;;;15.64;100.00
8069;BME280;4077;43.702;24.896;2023-09-19T00:12:29;99795.34;;;15.75;100.00
8069;BME280;4077;43.702;24.896;2023-09-19T00:14:55;99792.75;;;15.75;100.00
8069;BME280;4077;43.702;24.896;2023-09-19T00:17:22;99791.88;;;15.79;100.00
8069;BME280;4077;43.702;24.896;2023-09-19T00:19:47;99786.66;;;15.79;100.00
8069;BME280;4077;43.702;24.896;2023-09-19T00:22:16;99793.56;;;15.86;100.00
8069;BME280;4077;43.702;24.896;2023-09-19T00:24:42;99789.22;;;15.84;100.00
8069;BME280;4077;43.702;24.896;2023-09-19T00:27:08;99794.50;;;15.75;100.00
8069;BME280;4077;43.702;24.896;2023-09-19T00:29:33;99789.31;;;15.72;100.00
8069;BME280;4077;43.702;24.896;2023-09-19T00:31:59;99795.38;;;15.69;100.00
8069;BME280;4077;43.702;24.896;2023-09-19T00:34:24;99791.94;;;15.67;100.00
8069;BME280;4077;43.702;24.896;2023-09-19T00:36:51;99775.44;;;15.56;100.00
8069;BME280;4077;43.702;24.896;2023-09-19T00:39:18;99783.31;;;15.47;100.00
8069;BME280;4077;43.702;24.896;2023-09-19T00:41:45;99782.47;;;15.36;100.00
8069;BME280;4077;43.702;24.896;2023-09-19T00:44:11;99778.16;;;15.31;100.00
8069;BME280;4077;43.702;24.896;2023-09-19T00:46:37;99782.47;;;15.29;100.00
8069;BME280;4077;43.702;24.896;2023-09-19T00:49:03;99789.44;;;15.27;100.00
8069;BME280;4077;43.702;24.896;2023-09-19T00:51:28;99792.03;;;15.27;100.00
8069;BME280;4077;43.702;24.896;2023-09-19T00:53:55;99798.09;;;15.32;100.00
8069;BME280;4077;43.702;24.896;2023-09-19T00:56:20;99792.03;;;15.30;100.00
8069;BME280;4077;43.702;24.896;2023-09-19T00:58:47;99797.22;;;15.33;100.00
8069;BME280;4077;43.702;24.896;2023-09-19T01:01:16;99793.75;;;15.35;100.00
8069;BME280;4077;43.702;24.896;2023-09-19T01:03:42;99798.09;;;15.31;100.00
8069;BME280;4077;43.702;24.896;2023-09-19T01:06:08;99801.56;;;15.21;100.00
8069;BME280;4077;43.702;24.896;2023-09-19T01:08:34;99792.94;;;15.08;100.00
8069;BME280;4077;43.702;24.896;2023-09-19T01:13:40;99769.56;;;14.87;100.00
8069;BME280;4077;43.702;24.896;2023-09-19T01:16:22;99767.84;;;14.80;100.00
8069;BME280;4077;43.702;24.896;2023-09-19T01:30:24;99764.41;;;14.50;100.00
8069;BME280;4077;43.702;24.896;2023-09-19T01:32:53;99771.31;;;14.45;100.00
8069;BME280;4077;43.702;24.896;2023-09-19T01:35:19;99760.94;;;14.42;100.00
8069;BME280;4077;43.702;24.896;2023-09-19T01:37:45;99753.16;;;14.34;100.00
8069;BME280;4077;43.702;24.896;2023-09-19T01:40:15;99750.50;;;14.27;100.00
8069;BME280;4077;43.702;24.896;2023-09-19T01:42:52;99753.13;;;14.16;100.00
8069;BME280;4077;43.702;24.896;2023-09-19T01:45:45;99749.66;;;14.08;100.00
8069;BME280;4077;43.702;24.896;2023-09-19T01:51:02;99751.34;;;13.98;100.00
8069;BME280;4077;43.702;24.896;2023-09-19T01:53:54;99746.16;;;13.96;100.00
8069;BME280;4077;43.702;24.896;2023-09-19T01:57:40;99753.97;;;14.10;100.00
8069;BME280;4077;43.702;24.896;2023-09-19T01:59:42;99760.03;;;14.17;100.00
8069;BME280;4077;43.702;24.896;2023-09-19T02:02:09;99760.88;;;14.11;100.00
8069;BME280;4077;43.702;24.896;2023-09-19T02:04:35;99762.63;;;14.15;100.00
8069;BME280;4077;43.702;24.896;2023-09-19T02:07:02;99766.09;;;14.17;100.00
8069;BME280;4077;43.702;24.896;2023-09-19T02:09:28;99767.78;;;14.06;100.00
8069;BME280;4077;43.702;24.896;2023-09-19T02:11:53;99772.13;;;14.01;100.00
8069;BME280;4077;43.702;24.896;2023-09-19T02:14:21;99762.56;;;13.91;100.00
8069;BME280;4077;43.702;24.896;2023-09-19T02:16:47;99762.56;;;13.91;100.00
8069;BME280;4077;43.702;24.896;2023-09-19T02:19:15;99765.19;;;13.88;100.00
8069;BME280;4077;43.702;24.896;2023-09-19T02:21:40;99776.41;;;13.81;100.00
8069;BME280;4077;43.702;24.896;2023-09-19T02:24:06;99780.69;;;13.79;100.00
8069;BME280;4077;43.702;24.896;2023-09-19T02:26:33;99775.53;;;13.76;100.00
8069;BME280;4077;43.702;24.896;2023-09-19T02:29:01;99772.94;;;13.76;100.00
8069;BME280;4077;43.702;24.896;2023-09-19T02:31:28;99771.19;;;13.78;100.00
8069;BME280;4077;43.702;24.896;2023-09-19T02:33:54;99763.38;;;13.72;100.00
8069;BME280;4077;43.702;24.896;2023-09-19T02:36:20;99771.16;;;13.62;100.00
8069;BME280;4077;43.702;24.896;2023-09-19T02:38:45;99764.19;;;13.58;100.00
8069;BME280;4077;43.702;24.896;2023-09-19T02:41:11;99763.31;;;13.47;100.00
8069;BME280;4077;43.702;24.896;2023-09-19T02:43:37;99750.34;;;13.49;100.00
8069;BME280;4077;43.702;24.896;2023-09-19T02:46:02;99752.97;;;13.53;100.00
8069;BME280;4077;43.702;24.896;2023-09-19T02:48:28;99746.06;;;13.54;100.00
8069;BME280;4077;43.702;24.896;2023-09-19T02:50:54;99747.81;;;13.59;100.00
8069;BME280;4077;43.702;24.896;2023-09-19T02:53:20;99741.72;;;13.57;100.00
8069;BME280;4077;43.702;24.896;2023-09-19T02:55:49;99740.88;;;13.61;100.00
8069;BME280;4077;43.702;24.896;2023-09-19T02:58:15;99734.84;;;13.59;100.00
8069;BME280;4077;43.702;24.896;2023-09-19T03:00:40;99736.56;;;13.59;100.00
8069;BME280;4077;43.702;24.896;2023-09-19T03:03:07;99727.06;;;13.62;100.00
8069;BME280;4077;43.702;24.896;2023-09-19T03:05:33;99714.09;;;13.68;100.00
8069;BME280;4077;43.702;24.896;2023-09-19T03:07:59;99718.44;;;13.69;100.00
8069;BME280;4077;43.702;24.896;2023-09-19T03:10:28;99728.81;;;13.66;100.00
8069;BME280;4077;43.702;24.896;2023-09-19T03:12:54;99733.13;;;13.67;100.00
8069;BME280;4077;43.702;24.896;2023-09-19T03:15:20;99727.94;;;13.71;100.00
8069;BME280;4077;43.702;24.896;2023-09-19T03:17:48;99736.59;;;13.69;100.00
8069;BME280;4077;43.702;24.896;2023-09-19T03:20:14;99733.09;;;13.64;100.00
8069;BME280;4077;43.702;24.896;2023-09-19T03:22:45;99738.25;;;13.58;100.00
8069;BME280;4077;43.702;24.896;2023-09-19T03:25:11;99736.53;;;13.48;100.00
8069;BME280;4077;43.702;24.896;2023-09-19T03:27:37;99746.88;;;13.51;100.00
8069;BME280;4077;43.702;24.896;2023-09-19T03:30:04;99755.53;;;13.47;100.00
8069;BME280;4077;43.702;24.896;2023-09-19T03:32:36;99741.66;;;13.31;100.00
8069;BME280;4077;43.702;24.896;2023-09-19T03:35:03;99745.06;;;13.26;100.00
8069;BME280;4077;43.702;24.896;2023-09-19T03:37:32;99725.97;;;13.14;100.00
8069;BME280;4077;43.702;24.896;2023-09-19T03:40:00;99732.88;;;13.11;100.00
8069;BME280;4077;43.702;24.896;2023-09-19T03:42:30;99738.88;;;13.05;100.00
8069;BME280;4077;43.702;24.896;2023-09-19T03:44:56;99726.72;;;12.92;100.00
8069;BME280;4077;43.702;24.896;2023-09-19T03:47:21;99715.47;;;12.84;100.00
8069;BME280;4077;43.702;24.896;2023-09-19T03:49:47;99724.06;;;12.80;100.00
8069;BME280;4077;43.702;24.896;2023-09-19T03:52:13;99719.72;;;12.77;100.00
8069;BME280;4077;43.702;24.896;2023-09-19T03:54:39;99727.31;;;12.54;100.00
8069;BME280;4077;43.702;24.896;2023-09-19T03:57:06;99741.38;;;12.84;100.00
8069;BME280;4077;43.702;24.896;2023-09-19T03:59:32;99734.47;;;12.86;100.00
8069;BME280;4077;43.702;24.896;2023-09-19T04:01:57;99732.72;;;12.88;100.00
8069;BME280;4077;43.702;24.896;2023-09-19T04:04:23;99736.19;;;12.90;100.00
8069;BME280;4077;43.702;24.896;2023-09-19T04:06:53;99738.81;;;12.93;100.00
8069;BME280;4077;43.702;24.896;2023-09-19T04:09:18;99717.19;;;12.85;100.00
8069;BME280;4077;43.702;24.896;2023-09-19T04:11:44;99732.69;;;12.82;100.00
8069;BME280;4077;43.702;24.896;2023-09-19T04:14:09;99740.41;;;12.76;100.00
8069;BME280;4077;43.702;24.896;2023-09-19T04:16:35;99747.38;;;12.78;100.00
8069;BME280;4077;43.702;24.896;2023-09-19T04:19:00;99737.88;;;12.79;100.00
8069;BME280;4077;43.702;24.896;2023-09-19T04:21:26;99751.72;;;12.84;100.00
8069;BME280;4077;43.702;24.896;2023-09-19T04:23:53;99748.28;;;12.85;100.00
8069;BME280;4077;43.702;24.896;2023-09-19T04:26:18;99746.50;;;12.81;100.00
8069;BME280;4077;43.702;24.896;2023-09-19T04:28:44;99743.00;;;12.73;100.00
8069;BME280;4077;43.702;24.896;2023-09-19T04:31:10;99743.72;;;12.53;100.00
8069;BME280;4077;43.702;24.896;2023-09-19T04:33:37;99741.28;;;12.72;100.00
8069;BME280;4077;43.702;24.896;2023-09-19T04:36:02;99734.41;;;12.77;100.00
8069;BME280;4077;43.702;24.896;2023-09-19T04:38:33;99747.41;;;12.87;100.00
8069;BME280;4077;43.702;24.896;2023-09-19T04:40:58;99749.19;;;12.92;100.00
8069;BME280;4077;43.702;24.896;2023-09-19T04:43:24;99752.63;;;12.94;100.00
8069;BME280;4077;43.702;24.896;2023-09-19T04:45:50;99756.13;;;12.99;100.00
8069;BME280;4077;43.702;24.896;2023-09-19T04:48:16;99745.78;;;13.03;100.00
8069;BME280;4077;43.702;24.896;2023-09-19T04:50:42;99753.63;;;13.15;100.00
8069;BME280;4077;43.702;24.896;2023-09-19T04:53:08;99762.34;;;13.30;100.00
8069;BME280;4077;43.702;24.896;2023-09-19T04:55:33;99754.66;;;13.44;100.00
8069;BME280;4077;43.702;24.896;2023-09-19T04:57:59;99760.72;;;13.50;100.00
8069;BME280;4077;43.702;24.896;2023-09-19T05:00:24;99765.94;;;13.53;100.00
8069;BME280;4077;43.702;24.896;2023-09-19T05:02:51;99760.78;;;13.62;100.00
8069;BME280;4077;43.702;24.896;2023-09-19T05:05:17;99758.22;;;13.76;100.00
8069;BME280;4077;43.702;24.896;2023-09-19T05:07:44;99750.47;;;13.87;100.00
8069;BME280;4077;43.702;24.896;2023-09-19T05:10:10;99754.81;;;14.05;100.00
8069;BME280;4077;43.702;24.896;2023-09-19T05:12:37;99749.66;;;14.23;100.00
8069;BME280;4077;43.702;24.896;2023-09-19T05:15:03;99739.28;;;14.43;100.00
8069;BME280;4077;43.702;24.896;2023-09-19T05:17:30;99741.91;;;14.58;100.00
8069;BME280;4077;43.702;24.896;2023-09-19T05:19:57;99752.25;;;14.80;100.00
8069;BME280;4077;43.702;24.896;2023-09-19T05:22:23;99753.13;;;14.97;100.00
8069;BME280;4077;43.702;24.896;2023-09-19T05:24:50;99747.88;;;15.08;100.00
8069;BME280;4077;43.702;24.896;2023-09-19T05:27:16;99751.28;;;15.22;100.00
8069;BME280;4077;43.702;24.896;2023-09-19T05:29:45;99755.56;;;15.40;100.00
8069;BME280;4077;43.702;24.896;2023-09-19T05:32:11;99757.25;;;15.50;100.00
8069;BME280;4077;43.702;24.896;2023-09-19T05:34:37;99750.28;;;15.67;100.00
8069;BME280;4077;43.702;24.896;2023-09-19T05:37:03;99755.47;;;15.73;100.00
8069;BME280;4077;43.702;24.896;2023-09-19T05:39:30;99741.50;;;15.83;100.00
8069;BME280;4077;43.702;24.896;2023-09-19T05:41:55;99750.13;;;15.95;100.00
8069;BME280;4077;43.702;24.896;2023-09-19T05:44:22;99747.47;;;16.07;100.00
8069;BME280;4077;43.702;24.896;2023-09-19T05:46:48;99750.81;;;16.18;100.00
8069;BME280;4077;43.702;24.896;2023-09-19T05:49:13;99739.53;;;16.19;100.00
8069;BME280;4077;43.702;24.896;2023-09-19T05:51:39;99740.31;;;16.32;100.00
8069;BME280;4077;43.702;24.896;2023-09-19T05:54:05;99736.78;;;16.40;100.00
8069;BME280;4077;43.702;24.896;2023-09-19T05:56:30;99720.25;;;16.43;100.00
8069;BME280;4077;43.702;24.896;2023-09-19T05:58:56;99731.47;;;16.50;100.00
8069;BME280;4077;43.702;24.896;2023-09-19T06:01:21;99728.72;;;16.65;100.00
8069;BME280;4077;43.702;24.896;2023-09-19T06:03:47;99739.91;;;16.79;100.00
8069;BME280;4077;43.702;24.896;2023-09-19T06:06:13;99734.53;;;16.94;100.00
8069;BME280;4077;43.702;24.896;2023-09-19T06:08:39;99738.81;;;17.03;100.00
8069;BME280;4077;43.702;24.896;2023-09-19T06:11:04;99740.34;;;17.21;100.00
8069;BME280;4077;43.702;24.896;2023-09-19T06:13:32;99747.28;;;17.23;100.00
8069;BME280;4077;43.702;24.896;2023-09-19T06:15:59;99757.31;;;17.56;100.00
8069;BME280;4077;43.702;24.896;2023-09-19T06:18:28;99746.63;;;17.77;100.00
8069;BME280;4077;43.702;24.896;2023-09-19T06:20:54;99755.31;;;17.79;100.00
8069;BME280;4077;43.702;24.896;2023-09-19T06:23:21;99760.34;;;17.93;100.00
8069;BME280;4077;43.702;24.896;2023-09-19T06:25:48;99767.00;;;18.14;100.00
8069;BME280;4077;43.702;24.896;2023-09-19T06:28:13;99772.53;;;18.51;100.00
8069;BME280;4077;43.702;24.896;2023-09-19T06:30:40;99779.69;;;18.92;100.00
8069;BME280;4077;43.702;24.896;2023-09-19T06:33:06;99765.38;;;19.56;100.00
8069;BME280;4077;43.702;24.896;2023-09-19T06:35:33;99767.81;;;20.06;100.00
8069;BME280;4077;43.702;24.896;2023-09-19T06:38:01;99776.31;;;20.15;100.00
8069;BME280;4077;43.702;24.896;2023-09-19T06:40:28;99765.28;;;20.01;100.00
8069;BME280;4077;43.702;24.896;2023-09-19T06:42:53;99765.94;;;19.72;100.00
8069;BME280;4077;43.702;24.896;2023-09-19T06:45:19;99762.88;;;19.50;100.00
8069;BME280;4077;43.702;24.896;2023-09-19T06:47:47;99758.13;;;19.26;100.00
8069;BME280;4077;43.702;24.896;2023-09-19T06:50:21;99753.94;;;19.17;100.00
8069;BME280;4077;43.702;24.896;2023-09-19T06:52:53;99765.47;;;19.08;100.00
8069;BME280;4077;43.702;24.896;2023-09-19T06:55:21;99756.84;;;19.00;100.00
8069;BME280;4077;43.702;24.896;2023-09-19T06:57:50;99747.25;;;19.01;100.00
8069;BME280;4077;43.702;24.896;2023-09-19T07:00:16;99755.00;;;19.07;100.00
8069;BME280;4077;43.702;24.896;2023-09-19T07:03:04;99755.59;;;19.23;100.00
8069;BME280;4077;43.702;24.896;2023-09-19T07:05:34;99750.06;;;19.35;100.00
8069;BME280;4077;43.702;24.896;2023-09-19T07:08:04;99750.94;;;19.37;100.00
8069;BME280;4077;43.702;24.896;2023-09-19T07:10:31;99756.13;;;19.38;100.00
8069;BME280;4077;43.702;24.896;2023-09-19T07:13:04;99755.19;;;19.41;100.00
8069;BME280;4077;43.702;24.896;2023-09-19T07:15:34;99754.28;;;19.42;100.00
8069;BME280;4077;43.702;24.896;2023-09-19T07:18:02;99756.66;;;19.56;100.00
8069;BME280;4077;43.702;24.896;2023-09-19T07:20:28;99754.03;;;19.57;100.00
8069;BME280;4077;43.702;24.896;2023-09-19T07:22:57;99751.28;;;19.63;100.00
8069;BME280;4077;43.702;24.896;2023-09-19T07:25:25;99746.88;;;19.65;100.00
8069;BME280;4077;43.702;24.896;2023-09-19T07:27:51;99747.72;;;19.66;100.00
8069;BME280;4077;43.702;24.896;2023-09-19T07:30:16;99746.78;;;19.68;100.00
8069;BME280;4077;43.702;24.896;2023-09-19T07:32:42;99749.25;;;19.76;100.00
8069;BME280;4077;43.702;24.896;2023-09-19T07:35:08;99741.16;;;19.87;100.00
8069;BME280;4077;43.702;24.896;2023-09-19T07:37:34;99732.25;;;19.94;100.00
8069;BME280;4077;43.702;24.896;2023-09-19T07:40:03;99747.16;;;20.29;100.00
8069;BME280;4077;43.702;24.896;2023-09-19T07:42:37;99750.59;;;20.33;100.00
8069;BME280;4077;43.702;24.896;2023-09-19T07:45:09;99753.75;;;20.47;100.00
8069;BME280;4077;43.702;24.896;2023-09-19T07:47:35;99751.72;;;20.58;100.00
8069;BME280;4077;43.702;24.896;2023-09-19T07:50:01;99748.88;;;20.67;100.00
8069;BME280;4077;43.702;24.896;2023-09-19T07:52:28;99722.59;;;20.69;100.00
8069;BME280;4077;43.702;24.896;2023-09-19T07:54:54;99740.50;;;20.86;100.00
8069;BME280;4077;43.702;24.896;2023-09-19T07:57:20;99752.56;;;20.93;100.00
8069;BME280;4077;43.702;24.896;2023-09-19T07:59:45;99748.06;;;20.98;100.00
8069;BME280;4077;43.702;24.896;2023-09-19T08:02:11;99750.44;;;21.07;100.00
8069;BME280;4077;43.702;24.896;2023-09-19T08:04:45;99738.78;;;21.17;100.00
8069;BME280;4077;43.702;24.896;2023-09-19T08:07:14;99740.66;;;21.12;100.00
8069;BME280;4077;43.702;24.896;2023-09-19T08:09:40;99736.00;;;21.23;100.00
8069;BME280;4077;43.702;24.896;2023-09-19T08:12:06;99732.56;;;21.21;100.00
8069;BME280;4077;43.702;24.896;2023-09-19T08:14:33;99723.88;;;21.18;100.00
8069;BME280;4077;43.702;24.896;2023-09-19T08:16:59;99720.91;;;20.99;100.00
8069;BME280;4077;43.702;24.896;2023-09-19T08:19:26;99721.31;;;20.84;100.00
8069;BME280;4077;43.702;24.896;2023-09-19T08:21:56;99719.75;;;20.76;100.00
8069;BME280;4077;43.702;24.896;2023-09-19T08:24:28;99719.94;;;20.70;100.00
8069;BME280;4077;43.702;24.896;2023-09-19T08:26:57;99726.03;;;20.71;100.00
8069;BME280;4077;43.702;24.896;2023-09-19T08:29:25;99731.00;;;20.82;100.00
8069;BME280;4077;43.702;24.896;2023-09-19T08:31:59;99719.22;;;20.96;100.00
8069;BME280;4077;43.702;24.896;2023-09-19T08:34:25;99711.25;;;21.01;100.00
8069;BME280;4077;43.702;24.896;2023-09-19T08:36:51;99716.81;;;21.21;100.00
8069;BME280;4077;43.702;24.896;2023-09-19T08:39:22;99720.97;;;21.30;100.00
8069;BME280;4077;43.702;24.896;2023-09-19T08:41:47;99722.41;;;21.40;100.00
8069;BME280;4077;43.702;24.896;2023-09-19T08:44:13;99724.59;;;21.55;100.00
8069;BME280;4077;43.702;24.896;2023-09-19T08:46:41;99719.00;;;21.66;100.00
8069;BME280;4077;43.702;24.896;2023-09-19T08:49:33;99718.94;;;21.69;100.00
8069;BME280;4077;43.702;24.896;2023-09-19T08:52:13;99720.16;;;21.57;100.00
8069;BME280;4077;43.702;24.896;2023-09-19T08:54:41;99723.91;;;21.49;100.00
8069;BME280;4077;43.702;24.896;2023-09-19T08:57:08;99710.16;;;21.39;100.00
8069;BME280;4077;43.702;24.896;2023-09-19T08:59:38;99724.66;;;21.52;100.00
8069;BME280;4077;43.702;24.896;2023-09-19T09:02:11;99722.91;;;21.53;100.00
8069;BME280;4077;43.702;24.896;2023-09-19T09:04:39;99721.28;;;21.49;100.00
8069;BME280;4077;43.702;24.896;2023-09-19T09:07:10;99718.72;;;21.46;100.00
8069;BME280;4077;43.702;24.896;2023-09-19T09:09:36;99713.63;;;21.41;100.00
8069;BME280;4077;43.702;24.896;2023-09-19T09:12:02;99717.97;;;21.42;100.00
8069;BME280;4077;43.702;24.896;2023-09-19T09:14:29;99726.66;;;21.44;100.00
8069;BME280;4077;43.702;24.896;2023-09-19T09:16:56;99725.00;;;21.42;100.00
8069;BME280;4077;43.702;24.896;2023-09-19T09:19:24;99717.94;;;21.44;100.00
8069;BME280;4077;43.702;24.896;2023-09-19T09:21:51;99724.59;;;21.55;100.00
8069;BME280;4077;43.702;24.896;2023-09-19T09:24:27;99722.50;;;21.67;99.68
8069;BME280;4077;43.702;24.896;2023-09-19T09:26:54;99727.44;;;21.77;100.00
8069;BME280;4077;43.702;24.896;2023-09-19T09:32:28;99730.19;;;22.01;98.53
8069;BME280;4077;43.702;24.896;2023-09-19T09:34:55;99735.31;;;22.05;97.79
8069;BME280;4077;43.702;24.896;2023-09-19T09:37:22;99726.47;;;22.08;95.75
8069;BME280;4077;43.702;24.896;2023-09-19T09:39:54;99736.63;;;22.20;95.84
8069;BME280;4077;43.702;24.896;2023-09-19T09:42:35;99736.13;;;22.35;95.36
8069;BME280;4077;43.702;24.896;2023-09-19T09:47:54;99731.19;;;22.26;81.86
8069;BME280;4077;43.702;24.896;2023-09-19T09:53:21;99737.34;;;22.52;78.03
8069;BME280;4077;43.702;24.896;2023-09-19T09:56:14;99735.47;;;22.55;75.48
8069;BME280;4077;43.702;24.896;2023-09-19T09:58:51;99728.13;;;22.65;75.99
8069;BME280;4077;43.702;24.896;2023-09-19T10:01:21;99743.41;;;22.80;75.44
8069;BME280;4077;43.702;24.896;2023-09-19T10:03:57;99739.66;;;22.61;77.37
8069;BME280;4077;43.702;24.896;2023-09-19T10:06:22;99733.44;;;22.90;75.67
8069;BME280;4077;43.702;24.896;2023-09-19T10:09:08;99741.75;;;23.03;75.68
8069;BME280;4077;43.702;24.896;2023-09-19T10:11:47;99750.19;;;23.12;74.73
8069;BME280;4077;43.702;24.896;2023-09-19T10:14:25;99742.25;;;23.14;73.42
8069;BME280;4077;43.702;24.896;2023-09-19T10:16:55;99739.50;;;23.17;74.81
8069;BME280;4077;43.702;24.896;2023-09-19T10:19:56;99730.66;;;23.18;70.86
8069;BME280;4077;43.702;24.896;2023-09-19T10:22:31;99732.00;;;23.30;70.51
8069;BME280;4077;43.702;24.896;2023-09-19T10:24:58;99738.47;;;23.44;65.51
8069;BME280;4077;43.702;24.896;2023-09-19T10:27:26;99735.38;;;23.57;65.87
8069;BME280;4077;43.702;24.896;2023-09-19T10:29:52;99727.91;;;23.69;65.11
8069;BME280;4077;43.702;24.896;2023-09-19T10:32:22;99728.84;;;23.90;61.51
8069;BME280;4077;43.702;24.896;2023-09-19T10:34:49;99729.78;;;24.11;60.95
8069;BME280;4077;43.702;24.896;2023-09-19T10:37:20;99718.72;;;24.01;59.24
8069;BME280;4077;43.702;24.896;2023-09-19T10:39:48;99723.81;;;24.06;58.76
8069;BME280;4077;43.702;24.896;2023-09-19T10:42:19;99719.53;;;24.04;58.21
8069;BME280;4077;43.702;24.896;2023-09-19T10:44:45;99718.53;;;24.06;58.60
8069;BME280;4077;43.702;24.896;2023-09-19T10:47:12;99715.59;;;24.14;58.94
8069;BME280;4077;43.702;24.896;2023-09-19T10:49:44;99710.19;;;24.17;57.18
8069;BME280;4077;43.702;24.896;2023-09-19T10:52:13;99705.31;;;24.28;58.12
8069;BME280;4077;43.702;24.896;2023-09-19T10:54:46;99712.91;;;24.37;56.38
8069;BME280;4077;43.702;24.896;2023-09-19T10:57:24;99706.81;;;24.35;56.29
8069;BME280;4077;43.702;24.896;2023-09-19T11:00:03;99715.22;;;24.45;55.38
8069;BME280;4077;43.702;24.896;2023-09-19T11:06:03;99725.66;;;24.89;55.17
8069;BME280;4077;43.702;24.896;2023-09-19T11:09:03;99716.03;;;25.08;55.98
8069;BME280;4077;43.702;24.896;2023-09-19T11:11:47;99708.78;;;25.13;57.29
8069;BME280;4077;43.702;24.896;2023-09-19T11:30:35;99693.53;;;24.79;55.31
8069;BME280;4077;43.702;24.896;2023-09-19T11:46:52;99686.38;;;25.01;50.13
8069;BME280;4077;43.702;24.896;2023-09-19T11:49:19;99688.00;;;25.05;50.03
8069;BME280;4077;43.702;24.896;2023-09-19T11:51:52;99687.16;;;25.03;50.42
8069;BME280;4077;43.702;24.896;2023-09-19T11:54:19;99679.56;;;24.96;50.95
8069;BME280;4077;43.702;24.896;2023-09-19T11:56:56;99682.13;;;24.97;48.88
8069;BME280;4077;43.702;24.896;2023-09-19T11:59:24;99678.47;;;24.81;46.08
8069;BME280;4077;43.702;24.896;2023-09-19T12:01:54;99667.78;;;24.64;44.92
8069;BME280;4077;43.702;24.896;2023-09-19T12:04:37;99668.19;;;24.54;45.57
8069;BME280;4077;43.702;24.896;2023-09-19T12:07:15;99662.38;;;24.46;44.10
8069;BME280;4077;43.702;24.896;2023-09-19T12:09:42;99654.72;;;24.40;45.66
8069;BME280;4077;43.702;24.896;2023-09-19T12:12:10;99641.06;;;24.29;46.05
8069;BME280;4077;43.702;24.896;2023-09-19T12:14:38;99648.28;;;24.25;46.73
8069;BME280;4077;43.702;24.896;2023-09-19T12:17:04;99645.91;;;24.19;47.16
8069;BME280;4077;43.702;24.896;2023-09-19T12:19:30;99641.38;;;24.23;46.33
8069;BME280;4077;43.702;24.896;2023-09-19T12:22:03;99641.81;;;24.33;46.69
8069;BME280;4077;43.702;24.896;2023-09-19T12:24:32;99642.81;;;24.30;48.08
8069;BME280;4077;43.702;24.896;2023-09-19T12:27:06;99639.06;;;24.36;47.71
8069;BME280;4077;43.702;24.896;2023-09-19T12:29:52;99627.84;;;24.31;46.23
8069;BME280;4077;43.702;24.896;2023-09-19T12:32:36;99627.88;;;24.29;46.44
8069;BME280;4077;43.702;24.896;2023-09-19T12:35:02;99629.44;;;24.35;47.38
8069;BME280;4077;43.702;24.896;2023-09-19T12:37:32;99622.13;;;24.41;47.52
8069;BME280;4077;43.702;24.896;2023-09-19T12:40:06;99631.75;;;24.42;48.30
8069;BME280;4077;43.702;24.896;2023-09-19T12:42:47;99613.81;;;24.30;48.33
8069;BME280;4077;43.702;24.896;2023-09-19T12:45:14;99619.63;;;24.38;48.43
8069;BME280;4077;43.702;24.896;2023-09-19T12:48:20;99626.72;;;24.36;49.46
8069;BME280;4077;43.702;24.896;2023-09-19T12:51:09;99621.19;;;24.42;48.92
8069;BME280;4077;43.702;24.896;2023-09-19T12:53:42;99626.28;;;24.47;49.37
8069;BME280;4077;43.702;24.896;2023-09-19T12:56:10;99624.50;;;24.47;49.13
8069;BME280;4077;43.702;24.896;2023-09-19T12:58:52;99619.16;;;24.49;48.63
8069;BME280;4077;43.702;24.896;2023-09-19T13:01:21;99625.44;;;24.46;48.11
8069;BME280;4077;43.702;24.896;2023-09-19T13:04:17;99626.69;;;24.58;48.24
8069;BME280;4077;43.702;24.896;2023-09-19T13:06:50;99616.13;;;24.58;49.54
8069;BME280;4077;43.702;24.896;2023-09-19T13:09:17;99607.97;;;24.63;49.24
8069;BME280;4077;43.702;24.896;2023-09-19T13:11:43;99610.78;;;24.60;47.18
8069;BME280;4077;43.702;24.896;2023-09-19T13:14:26;99607.19;;;24.61;46.94
8069;BME280;4077;43.702;24.896;2023-09-19T13:17:04;99602.94;;;24.58;46.74
8069;BME280;4077;43.702;24.896;2023-09-19T13:19:49;99608.13;;;24.60;46.57
8069;BME280;4077;43.702;24.896;2023-09-19T13:22:44;99601.16;;;24.59;47.87
8069;BME280;4077;43.702;24.896;2023-09-19T13:25:16;99597.84;;;24.53;48.08
8069;BME280;4077;43.702;24.896;2023-09-19T13:30:17;99591.13;;;24.46;50.17
8069;BME280;4077;43.702;24.896;2023-09-19T13:32:44;99592.44;;;24.36;50.39
8069;BME280;4077;43.702;24.896;2023-09-19T13:35:10;99588.06;;;24.35;50.12
8069;BME280;4077;43.702;24.896;2023-09-19T13:37:38;99594.03;;;24.40;48.67
8069;BME280;4077;43.702;24.896;2023-09-19T13:40:12;99586.25;;;24.37;48.47
8069;BME280;4077;43.702;24.896;2023-09-19T13:42:38;99585.44;;;24.35;48.66
8069;BME280;4077;43.702;24.896;2023-09-19T13:45:05;99595.97;;;24.37;49.08
8069;BME280;4077;43.702;24.896;2023-09-19T13:47:31;99598.88;;;24.29;50.20
8069;BME280;4077;43.702;24.896;2023-09-19T13:50:02;99585.22;;;24.19;50.31
8069;BME280;4077;43.702;24.896;2023-09-19T13:52:31;99579.34;;;24.13;50.27
8069;BME280;4077;43.702;24.896;2023-09-19T13:54:57;99574.34;;;24.07;50.42
8069;BME280;4077;43.702;24.896;2023-09-19T13:57:23;99572.44;;;24.10;51.71
8069;BME280;4077;43.702;24.896;2023-09-19T13:59:49;99572.38;;;24.12;51.71
8069;BME280;4077;43.702;24.896;2023-09-19T14:02:15;99574.06;;;24.13;52.50
8069;BME280;4077;43.702;24.896;2023-09-19T14:04:43;99571.63;;;24.08;52.52
8069;BME280;4077;43.702;24.896;2023-09-19T14:07:09;99567.75;;;23.96;52.29
8069;BME280;4077;43.702;24.896;2023-09-19T14:09:36;99563.50;;;23.92;53.13
8069;BME280;4077;43.702;24.896;2023-09-19T14:12:02;99567.31;;;23.85;53.53
8069;BME280;4077;43.702;24.896;2023-09-19T14:14:27;99564.34;;;23.72;54.37